Terminal Aerodrome Forecast
Issued by NWS

Home | Current Version | Previous Version | Text Only | Print | Product List | Glossary Off
Versions: 1 2 3 4 5 6 7 8 9 10 11 12 13 14 15

000
FTUS43 KABR 202000 AAA
TAFMBG
TAF AMD
KMBG 202059Z 2021/2118 21014KT P6SM SKC
     FM210000 32008KT P6SM SKC
     FM211500 32016G22KT P6SM SKC=

USA.gov is the U.S. government's official web portal to all federal, state and local government web resources and services.